Time;durP1;ratioP1;P1;durP2;ratioP2;P2;SDS_P1;SDS_P2;PMS_P1;PMS_P2;Temp;Humidity;BMP_temperature;BMP_pressure;BME280_temperature;BME280_humidity;BME280_pressure;Samples;Min_cycle;Max_cycle;Signal;HPM_P1;HPM_P2
2024/01/30 00:01:48;;;;;;;;;;;;;;;2.01;81.68;102055.16;4806120;29;20053;-67
2024/01/30 00:04:51;;;;;;;9.23;6.75;;;;;;;2.01;81.80;102066.38;4805771;29;19977;-67
2024/01/30 00:07:54;;;;;;;10.82;7.40;;;;;;;2.00;81.98;102059.47;4805223;29;20105;-66
2024/01/30 00:10:57;;;;;;;10.40;6.93;;;;;;;1.97;82.05;102056.00;4805991;29;20089;-66
2024/01/30 00:14:01;;;;;;;11.13;7.60;;;;;;;1.96;81.82;102057.72;4805442;29;20140;-66
2024/01/30 00:17:04;;;;;;;10.65;7.28;;;;;;;1.88;82.19;102054.19;4805444;29;20050;-67
2024/01/30 00:20:09;;;;;;;10.40;7.25;;;;;;;1.83;81.94;102059.34;4805552;29;20053;-66
2024/01/30 00:23:12;;;;;;;14.00;7.93;;;;;;;1.89;82.42;102061.09;4804791;29;20045;-66
2024/01/30 00:26:15;;;;;;;;;;;;;;;1.88;81.95;102055.91;4805670;29;20187;-67
2024/01/30 00:29:19;;;;;;;11.13;6.88;;;;;;;1.90;81.84;102061.97;4805528;29;19923;-66
2024/01/30 00:32:23;;;;;;;9.15;6.45;;;;;;;1.90;81.92;102062.81;4805078;29;20570;-67
2024/01/30 00:35:26;;;;;;;;;;;;;;;1.92;82.15;102055.97;4805767;29;20049;-67
2024/01/30 00:38:29;;;;;;;11.10;7.65;;;;;;;1.93;81.98;102062.84;4804786;29;19931;-67
2024/01/30 00:41:33;;;;;;;11.95;7.75;;;;;;;1.90;81.69;102057.66;4805142;29;20057;-67
2024/01/30 00:44:39;;;;;;;10.50;6.75;;;;;;;1.92;82.07;102061.13;4793930;29;20050;-67
2024/01/30 00:47:43;;;;;;;10.43;7.35;;;;;;;1.89;82.08;102053.38;4804854;29;20049;-67
2024/01/30 00:50:46;;;;;;;10.65;7.28;;;;;;;1.90;82.00;102052.50;4783054;29;20647;-67
2024/01/30 00:53:50;;;;;;;;;;;;;;;1.91;81.67;102054.22;4805253;29;20475;-66
2024/01/30 00:56:52;;;;;;;10.27;6.82;;;;;;;1.74;81.93;102055.81;4804734;29;19924;-66
2024/01/30 00:59:57;;;;;;;11.63;7.68;;;;;;;1.74;82.26;102054.09;4805347;29;20050;-67
2024/01/30 01:03:00;;;;;;;11.50;7.70;;;;;;;1.78;81.67;102050.69;4808438;29;20595;-67
2024/01/30 01:06:04;;;;;;;13.20;8.25;;;;;;;1.79;81.88;102043.84;4808627;29;20141;-67
2024/01/30 01:09:06;;;;;;;10.52;6.88;;;;;;;1.77;81.79;102053.25;4797439;29;20042;-67
2024/01/30 01:12:10;;;;;;;10.73;6.95;;;;;;;1.80;81.66;102053.28;4808332;29;20119;-67
2024/01/30 01:15:13;;;;;;;12.30;7.50;;;;;;;1.81;81.30;102062.75;4808293;29;20114;-67
2024/01/30 01:18:16;;;;;;;11.43;7.85;;;;;;;1.77;81.34;102061.00;4808195;29;20046;-67
2024/01/30 01:21:20;;;;;;;11.93;8.35;;;;;;;1.77;81.62;102053.25;4807913;29;20089;-67
2024/01/30 01:24:24;;;;;;;11.93;7.85;;;;;;;1.79;81.57;102059.31;4805147;29;20131;-67
2024/01/30 01:27:27;;;;;;;9.00;6.90;;;;;;;1.81;81.70;102047.28;4808233;29;20472;-67
2024/01/30 01:30:30;;;;;;;;;;;;;;;1.81;81.89;102050.72;4808219;29;20147;-67
2024/01/30 01:33:34;;;;;;;10.50;7.13;;;;;;;1.83;81.43;102053.31;4807674;29;19975;-67
2024/01/30 01:36:37;;;;;;;10.35;7.57;;;;;;;1.80;81.21;102051.56;4807824;29;20045;-67
2024/01/30 01:39:41;;;;;;;;;;;;;;;1.72;81.26;102053.22;4808182;29;20631;-67
2024/01/30 01:42:43;;;;;;;12.52;8.10;;;;;;;1.73;81.52;102054.09;4807784;29;20172;-67
2024/01/30 01:45:46;;;;;;;11.52;8.48;;;;;;;1.73;81.55;102046.38;4807829;29;20046;-67
2024/01/30 01:48:50;;;;;;;13.30;7.97;;;;;;;1.74;81.28;102045.50;4807676;29;20118;-66
2024/01/30 01:51:58;;;;;;;8.65;7.60;;;;;;;1.71;81.24;102040.31;4807733;29;20130;-67
2024/01/30 01:55:01;;;;;;;12.13;8.43;;;;;;;1.71;81.31;102042.91;4807490;29;20049;-67
2024/01/30 01:58:05;;;;;;;11.85;8.57;;;;;;;1.66;81.67;102036.81;4802321;29;20142;-66
2024/01/30 02:01:09;;;;;;;13.68;8.82;;;;;;;1.65;81.94;102041.13;4807496;29;20046;-67
2024/01/30 02:04:12;;;;;;;13.18;9.05;;;;;;;1.67;81.74;102036.84;4806868;29;20086;-67
2024/01/30 02:07:15;;;;;;;;;;;;;;;1.68;81.58;102046.31;4807496;29;20046;-67
2024/01/30 02:10:18;;;;;;;10.98;7.85;;;;;;;1.62;81.39;102035.94;4807193;29;20391;-67
2024/01/30 02:13:22;;;;;;;12.02;8.55;;;;;;;1.58;81.32;102040.19;4806797;29;20529;-67
2024/01/30 02:16:25;;;;;;;12.50;8.95;;;;;;;1.61;81.67;102035.06;4807323;29;20417;-67
2024/01/30 02:19:28;;;;;;;10.65;7.85;;;;;;;1.61;81.78;102031.63;4807132;29;20054;-66
2024/01/30 02:22:34;;;;;;;10.25;7.90;;;;;;;1.61;81.70;102027.34;4806859;29;20074;-67
2024/01/30 02:25:44;;;;;;;14.10;8.38;;;;;;;1.59;81.54;102025.59;4807033;29;20050;-67
2024/01/30 02:28:46;;;;;;;12.38;8.75;;;;;;;1.57;81.78;102025.59;4807340;29;20046;-67
2024/01/30 02:31:50;;;;;;;11.27;8.82;;;;;;;1.59;81.69;102030.75;4807226;29;20536;-67
2024/01/30 02:34:53;;;;;;;;;;;;;;;1.61;81.97;102023.91;4807446;29;20045;-67
2024/01/30 02:37:56;;;;;;;12.63;8.80;;;;;;;1.58;81.92;102024.72;4806941;29;20005;-67
2024/01/30 02:40:59;;;;;;;10.77;7.90;;;;;;;1.58;81.70;102019.56;4806828;29;20099;-67
2024/01/30 02:44:04;;;;;;;12.95;8.75;;;;;;;1.58;81.57;102027.31;4806429;29;20414;-67
2024/01/30 02:47:06;;;;;;;;;;;;;;;1.57;81.61;102023.00;4807446;29;20204;-66
2024/01/30 02:50:09;;;;;;;11.00;7.90;;;;;;;1.59;81.70;102023.88;4805971;29;19943;-67
2024/01/30 02:53:12;;;;;;;;;;;;;;;1.53;81.90;102026.44;4806458;29;20057;-66
2024/01/30 02:56:16;;;;;;;11.80;8.30;;;;;;;1.53;81.71;102023.84;4806942;29;20009;-67
2024/01/30 02:59:19;;;;;;;10.10;8.05;;;;;;;1.52;81.88;102023.81;4806674;29;20525;-67
2024/01/30 03:02:22;;;;;;;13.02;8.30;;;;;;;1.53;81.81;102017.81;4806157;29;20050;-67
2024/01/30 03:05:26;;;;;;;11.20;8.43;;;;;;;1.51;82.05;102016.94;4805531;29;20046;-67
2024/01/30 03:08:29;;;;;;;12.05;7.75;;;;;;;1.48;81.95;102025.50;4806199;29;20096;-67
2024/01/30 03:11:32;;;;;;;13.38;7.78;;;;;;;1.50;82.16;102013.50;4806865;29;20053;-66
2024/01/30 03:14:36;;;;;;;10.55;7.68;;;;;;;1.53;81.69;102015.22;4806256;29;20102;-67
2024/01/30 03:17:39;;;;;;;11.77;9.40;;;;;;;1.49;81.51;102009.19;4805961;29;20057;-66
2024/01/30 03:20:42;;;;;;;;;;;;;;;1.49;82.00;102014.34;4806084;29;20112;-67
2024/01/30 03:23:45;;;;;;;13.38;9.57;;;;;;;1.46;81.78;102019.47;4806019;29;19924;-67
2024/01/30 03:26:48;;;;;;;12.40;8.60;;;;;;;1.48;81.65;102010.03;4805861;29;20417;-67
2024/01/30 03:29:52;;;;;;;;;;;;;;;1.50;82.08;102010.94;4806924;29;20045;-67
2024/01/30 03:32:55;;;;;;;12.75;9.07;;;;;;;1.39;81.82;102004.78;4806475;29;19974;-67
2024/01/30 03:36:03;;;;;;;9.70;7.85;;;;;;;1.45;81.90;102009.16;4806104;29;20099;-67
2024/01/30 03:39:06;;;;;;;13.95;9.27;;;;;;;1.46;81.93;102003.13;4805680;29;20054;-67
2024/01/30 03:42:09;;;;;;;;;;;;;;;1.47;81.58;101997.13;4806098;29;20046;-67
2024/01/30 03:45:13;;;;;;;12.32;7.22;;;;;;;1.46;81.21;102005.72;4805547;29;19974;-67
2024/01/30 03:48:16;;;;;;;12.07;8.40;;;;;;;1.44;81.28;102000.56;4805643;29;20425;-67
2024/01/30 03:51:19;;;;;;;10.95;8.85;;;;;;;1.44;81.36;102002.28;4805475;29;20520;-66
2024/01/30 03:54:23;;;;;;;10.43;7.65;;;;;;;1.41;81.45;101999.69;4805823;29;20049;-66
2024/01/30 03:57:26;;;;;;;11.63;8.32;;;;;;;1.39;81.47;102002.22;4805747;29;20073;-67
2024/01/30 04:00:29;;;;;;;11.35;7.63;;;;;;;1.31;81.42;102003.88;4805665;29;20099;-67
2024/01/30 04:03:33;;;;;;;13.27;8.65;;;;;;;1.34;81.56;101999.63;4805209;29;20109;-66
2024/01/30 04:06:37;;;;;;;13.27;8.25;;;;;;;1.36;81.53;102004.78;4805535;29;20069;-67
2024/01/30 04:09:40;;;;;;;12.15;8.27;;;;;;;1.35;81.33;102000.47;4805735;29;20049;-66
2024/01/30 04:12:43;;;;;;;10.50;8.02;;;;;;;1.35;81.38;102001.34;4805200;29;20442;-66
2024/01/30 04:15:46;;;;;;;11.60;8.15;;;;;;;1.36;81.04;102002.19;4805686;29;20050;-66
2024/01/30 04:18:51;;;;;;;11.88;8.32;;;;;;;1.34;81.59;102003.88;4805545;29;20127;-67
2024/01/30 04:21:54;;;;;;;15.63;10.60;;;;;;;1.36;81.35;101999.63;4805627;29;20085;-67
2024/01/30 04:24:58;;;;;;;14.95;11.65;;;;;;;1.40;81.33;102003.94;4804934;29;20054;-67
2024/01/30 04:28:01;;;;;;;14.73;8.13;;;;;;;1.31;81.24;101996.16;4804779;29;20049;-67
2024/01/30 04:31:04;;;;;;;14.95;9.05;;;;;;;1.10;81.55;102000.22;4804638;29;20099;-66
2024/01/30 04:34:08;;;;;;;12.23;8.55;;;;;;;1.22;81.38;102008.94;4805077;29;20050;-66
2024/01/30 04:37:11;;;;;;;12.88;8.60;;;;;;;1.26;81.14;102005.53;4819339;29;20065;-66
2024/01/30 04:40:14;;;;;;;12.27;8.75;;;;;;;1.28;80.82;102003.84;4826223;29;20106;-68
2024/01/30 04:43:19;;;;;;;11.85;8.38;;;;;;;1.27;80.95;102004.69;4827172;29;20053;-68
2024/01/30 04:46:22;;;;;;;14.18;8.88;;;;;;;1.32;81.18;102005.59;4824300;29;20126;-67
2024/01/30 04:49:25;;;;;;;14.63;8.23;;;;;;;1.30;80.98;102010.72;4818053;29;20120;-68
2024/01/30 04:52:28;;;;;;;12.63;9.07;;;;;;;1.30;81.04;102021.03;4814210;29;20049;-68
2024/01/30 04:55:31;;;;;;;13.32;8.90;;;;;;;1.32;81.27;102008.19;4814571;29;20046;-67
2024/01/30 04:58:36;;;;;;;12.75;8.85;;;;;;;1.29;81.43;102005.56;4815603;29;20107;-67
2024/01/30 05:01:39;;;;;;;12.07;7.72;;;;;;;1.32;80.76;102010.75;4820572;29;20045;-67
2024/01/30 05:04:42;;;;;;;12.13;8.75;;;;;;;1.33;81.02;102005.59;4820784;29;20075;-68
2024/01/30 05:07:45;;;;;;;12.18;8.50;;;;;;;1.34;80.99;102009.94;4816148;29;20421;-68
2024/01/30 05:10:49;;;;;;;12.48;8.50;;;;;;;1.35;80.57;102000.47;4821405;29;20410;-68
2024/01/30 05:13:52;;;;;;;12.20;8.23;;;;;;;1.39;80.68;102002.22;4823155;29;20126;-67
2024/01/30 05:16:55;;;;;;;10.80;7.55;;;;;;;1.38;80.40;102008.25;4803012;29;20054;-67
2024/01/30 05:19:59;;;;;;;13.32;9.63;;;;;;;1.36;80.66;102004.78;4808154;29;20050;-68
2024/01/30 05:23:02;;;;;;;9.02;6.93;;;;;;;1.35;80.75;101996.19;4808266;29;20421;-67
2024/01/30 05:26:05;;;;;;;9.68;7.75;;;;;;;1.35;80.32;101987.59;4808176;29;20073;-68
2024/01/30 05:29:08;;;;;;;;;;;;;;;1.32;80.74;101995.28;4816606;29;20057;-68
2024/01/30 05:32:12;;;;;;;10.90;8.23;;;;;;;1.28;81.62;101996.13;4825565;29;20295;-75
2024/01/30 05:35:15;;;;;;;12.85;8.35;;;;;;;1.19;81.19;102001.19;4811585;29;20528;-74
2024/01/30 05:38:18;;;;;;;10.57;8.05;;;;;;;1.29;81.39;101996.13;4821227;29;20184;-67
2024/01/30 05:41:22;;;;;;;10.90;8.82;;;;;;;1.41;81.26;102002.25;4808007;29;20046;-67
2024/01/30 05:44:25;;;;;;;12.70;8.32;;;;;;;1.46;80.85;102005.72;4808219;29;20528;-67
2024/01/30 05:47:28;;;;;;;9.40;7.30;;;;;;;1.48;80.90;102007.47;4821914;29;20074;-67
2024/01/30 05:50:31;;;;;;;10.57;7.82;;;;;;;1.50;80.87;102000.63;4825638;29;20057;-66
2024/01/30 05:53:35;;;;;;;11.68;8.68;;;;;;;1.51;80.65;102004.91;4825804;29;20416;-67
2024/01/30 05:56:38;;;;;;;12.90;9.50;;;;;;;1.53;80.88;102003.22;4825809;29;20061;-67
2024/01/30 05:59:43;;;;;;;9.77;8.75;;;;;;;1.55;80.67;102004.09;4825827;29;20107;-67
2024/01/30 06:02:46;;;;;;;12.60;8.70;;;;;;;1.54;80.31;102004.09;4825951;29;20057;-67
2024/01/30 06:05:50;;;;;;;10.95;8.32;;;;;;;1.54;80.63;102004.94;4825704;29;20177;-67
2024/01/30 06:08:56;;;;;;;13.38;8.98;;;;;;;1.59;80.98;102007.53;4825738;29;20080;-67
2024/01/30 06:11:58;;;;;;;12.23;7.95;;;;;;;1.60;80.51;102006.72;4825567;29;20142;-67
2024/01/30 06:15:02;;;;;;;;;;;;;;;1.64;80.92;102008.47;4825869;29;20077;-67
2024/01/30 06:18:05;;;;;;;15.68;9.27;;;;;;;1.65;80.35;102004.16;4820368;29;20029;-67
2024/01/30 06:21:09;;;;;;;12.40;7.97;;;;;;;1.63;80.09;102007.59;4825307;29;20054;-66
2024/01/30 06:24:15;;;;;;;11.10;7.93;;;;;;;1.63;79.96;102001.59;4824256;29;20115;-67
2024/01/30 06:27:19;;;;;;;10.80;8.25;;;;;;;1.61;79.88;102006.72;4824378;29;20049;-67
2024/01/30 06:30:23;;;;;;;13.15;8.45;;;;;;;1.61;80.40;102005.84;4825060;29;20112;-67
2024/01/30 06:33:27;;;;;;;;;;;;;;;1.57;80.32;101997.22;4825418;29;20069;-67
2024/01/30 06:36:58;;;;;;;13.40;8.68;;;;;;;1.57;80.27;102002.38;4825262;29;20448;-67
2024/01/30 06:40:34;;;;;;;15.07;10.07;;;;;;;1.57;80.33;101999.81;4798080;29;20057;-67
2024/01/30 06:43:37;;;;;;;17.75;11.63;;;;;;;1.57;80.75;102002.38;4825107;29;20054;-67
2024/01/30 06:46:40;;;;;;;13.60;9.52;;;;;;;1.59;80.55;102004.97;4825188;29;20082;-66
2024/01/30 06:49:45;;;;;;;12.35;9.65;;;;;;;1.60;80.63;102006.72;4821365;29;20310;-67
2024/01/30 06:52:48;;;;;;;13.65;9.15;;;;;;;1.60;81.08;102002.41;4815120;29;20070;-67
2024/01/30 06:55:52;;;;;;;16.67;9.15;;;;;;;1.61;80.86;102008.44;4815399;29;20077;-67
2024/01/30 06:58:55;;;;;;;22.40;12.52;;;;;;;1.61;81.33;102009.28;4812837;29;20509;-66
2024/01/30 07:01:58;;;;;;;20.88;12.60;;;;;;;1.62;81.42;102011.00;4816338;29;20120;-67
2024/01/30 07:05:01;;;;;;;24.17;13.52;;;;;;;1.59;81.70;102016.13;4811162;29;20524;-67
2024/01/30 07:08:05;;;;;;;22.23;13.25;;;;;;;1.62;82.06;102005.00;4816066;29;20102;-67
2024/01/30 07:11:09;;;;;;;21.88;13.23;;;;;;;1.63;82.20;102011.91;4813574;29;20070;-68
2024/01/30 07:14:12;;;;;;;22.95;14.95;;;;;;;1.60;82.60;102010.16;4813271;29;20493;-67
2024/01/30 07:17:15;;;;;;;20.98;12.52;;;;;;;1.59;82.59;102016.13;4813795;29;20103;-66
2024/01/30 07:20:20;;;;;;;;;;;;;;;1.65;82.68;102015.34;4809969;29;20054;-67
2024/01/30 07:23:23;;;;;;;23.35;13.52;;;;;;;1.63;83.08;102017.91;4802870;29;20336;-67
2024/01/30 07:26:26;;;;;;;19.83;13.25;;;;;;;1.67;82.84;102017.94;4803695;29;20061;-67
2024/01/30 07:29:30;;;;;;;23.08;13.68;;;;;;;1.67;83.17;102021.38;4804363;29;20090;-67
2024/01/30 07:32:33;;;;;;;;;;;;;;;1.69;83.30;102019.69;4804361;29;20111;-67
2024/01/30 07:35:36;;;;;;;23.83;14.00;;;;;;;1.72;83.42;102021.41;4804664;29;19978;-67
2024/01/30 07:38:40;;;;;;;22.67;15.98;;;;;;;1.75;83.27;102027.44;4804390;29;20051;-66
2024/01/30 07:41:43;;;;;;;21.42;13.77;;;;;;;1.77;83.17;102032.63;4804602;29;20046;-66
2024/01/30 07:44:47;;;;;;;20.88;12.77;;;;;;;1.77;83.30;102030.06;4792967;29;20066;-66
2024/01/30 07:47:51;;;;;;;17.40;11.80;;;;;;;1.81;83.77;102026.63;4804425;29;20104;-67
2024/01/30 07:50:53;;;;;;;22.05;12.82;;;;;;;1.83;83.80;102030.97;4804061;29;20054;-66
2024/01/30 07:53:58;;;;;;;22.55;12.95;;;;;;;1.85;83.39;102028.38;4804178;29;20046;-66
2024/01/30 07:57:01;;;;;;;18.05;12.38;;;;;;;1.88;83.40;102037.88;4804423;29;20115;-66
2024/01/30 08:00:07;;;;;;;19.38;12.65;;;;;;;1.88;83.64;102037.88;4804113;29;20058;-66
2024/01/30 08:03:09;;;;;;;19.40;12.98;;;;;;;1.90;83.97;102037.03;4804132;29;20524;-66
2024/01/30 08:06:13;;;;;;;18.40;12.82;;;;;;;1.91;84.36;102040.47;4782698;29;20183;-66
2024/01/30 08:09:16;;;;;;;19.90;12.15;;;;;;;1.95;84.04;102040.53;4803518;29;20465;-66
2024/01/30 08:12:19;;;;;;;18.13;12.73;;;;;;;1.95;84.24;102032.78;4804195;29;20060;-66
2024/01/30 08:15:22;;;;;;;18.92;12.20;;;;;;;1.99;84.00;102041.41;4801231;29;20106;-66
2024/01/30 08:18:26;;;;;;;21.90;14.02;;;;;;;1.94;84.41;102043.94;4803874;29;20054;-66
2024/01/30 08:21:29;;;;;;;;;;;;;;;1.97;83.89;102038.78;4804564;29;20130;-66
2024/01/30 08:24:32;;;;;;;23.55;15.27;;;;;;;2.01;84.14;102040.56;4804238;29;20065;-67
2024/01/30 08:27:38;;;;;;;21.00;14.95;;;;;;;2.04;84.04;102032.84;4804104;29;20529;-67
2024/01/30 08:30:41;;;;;;;17.75;12.93;;;;;;;2.06;83.71;102033.72;4804296;29;20099;-66
2024/01/30 08:33:45;;;;;;;;;;;;;;;2.07;83.67;102030.28;4804207;29;20049;-67
2024/01/30 08:36:48;;;;;;;16.00;11.73;;;;;;;2.14;83.93;102035.47;4803832;29;19940;-67
2024/01/30 08:39:51;;;;;;;;;;;;;;;2.15;83.85;102032.06;4804127;29;20050;-67
2024/01/30 08:42:54;;;;;;;14.97;11.47;;;;;;;2.22;83.71;102026.94;4803217;29;20067;-67
2024/01/30 08:46:01;;;;;;;15.73;10.75;;;;;;;2.27;83.50;102027.84;4802375;29;20428;-67
2024/01/30 08:49:04;;;;;;;14.90;10.82;;;;;;;2.29;83.24;102020.94;4801511;29;20094;-68
2024/01/30 08:52:07;;;;;;;16.23;11.57;;;;;;;2.29;83.20;102025.25;4801827;29;20119;-67
2024/01/30 08:55:11;;;;;;;15.32;11.18;;;;;;;2.32;82.87;102036.44;4790507;29;20073;-67
2024/01/30 08:58:18;;;;;;;16.77;11.05;;;;;;;2.33;82.74;102027.00;4799948;29;20089;-67
2024/01/30 09:01:21;;;;;;;14.55;10.68;;;;;;;2.36;82.65;102028.72;4803743;29;20463;-67
2024/01/30 09:04:25;;;;;;;15.48;11.13;;;;;;;2.37;82.63;102033.06;4803862;29;20073;-67
2024/01/30 09:07:28;;;;;;;14.25;11.70;;;;;;;2.39;83.00;102031.31;4803794;29;20069;-67
2024/01/30 09:10:31;;;;;;;15.90;12.73;;;;;;;2.45;82.57;102036.53;4804006;29;20422;-67
2024/01/30 09:13:35;;;;;;;16.98;12.40;;;;;;;2.49;82.09;102036.56;4804045;29;20524;-70
2024/01/30 09:16:38;;;;;;;16.20;12.27;;;;;;;2.55;82.31;102040.88;4803858;29;20089;-66
2024/01/30 09:19:41;;;;;;;14.80;11.48;;;;;;;2.60;82.44;102030.59;4803771;29;20054;-67
2024/01/30 09:22:44;;;;;;;;;;;;;;;2.63;82.23;102031.47;4807432;29;20049;-67
2024/01/30 09:25:48;;;;;;;15.75;10.93;;;;;;;2.66;82.31;102038.38;4807101;29;19968;-67
2024/01/30 09:28:51;;;;;;;13.93;11.30;;;;;;;2.69;82.24;102036.66;4806869;29;20652;-67
2024/01/30 09:31:54;;;;;;;15.00;10.98;;;;;;;2.74;82.39;102034.09;4806960;29;20103;-67
2024/01/30 09:34:58;;;;;;;13.48;10.55;;;;;;;2.77;82.35;102034.94;4806715;29;20050;-73
2024/01/30 09:38:03;;;;;;;13.80;10.55;;;;;;;2.70;84.76;102027.19;4807071;29;20050;-77
2024/01/30 09:41:10;;;;;;;12.80;10.25;;;;;;;2.46;84.32;102033.13;4806914;29;20126;-77
2024/01/30 09:44:16;;;;;;;12.80;10.88;;;;;;;2.70;86.15;102040.09;4806760;29;20090;-74
2024/01/30 09:47:19;;;;;;;13.60;9.90;;;;;;;2.85;85.44;102034.16;4806763;29;20046;-72
2024/01/30 09:50:22;;;;;;;13.88;10.90;;;;;;;2.82;84.39;102047.91;4806438;29;20057;-74
2024/01/30 09:53:26;;;;;;;12.27;10.63;;;;;;;2.85;83.85;102050.50;4805143;29;20578;-76
2024/01/30 09:56:29;;;;;;;16.92;11.75;;;;;;;2.90;83.93;102045.34;4804527;29;20448;-74
2024/01/30 09:59:33;;;;;;;12.55;10.02;;;;;;;3.06;84.17;102043.66;4806076;29;20054;-74
2024/01/30 10:02:36;;;;;;;14.00;11.35;;;;;;;3.09;83.05;102038.50;4806440;29;20145;-72
2024/01/30 10:05:40;;;;;;;13.48;9.30;;;;;;;3.14;82.97;102044.56;4806765;29;20142;-73
2024/01/30 10:08:43;;;;;;;12.60;10.05;;;;;;;3.19;83.16;102045.44;4805923;29;20072;-70
2024/01/30 10:11:48;;;;;;;14.00;10.88;;;;;;;3.22;83.03;102053.19;4806475;29;20108;-69
2024/01/30 10:14:51;;;;;;;11.63;9.30;;;;;;;3.29;82.49;102043.72;4806633;29;20528;-69
2024/01/30 10:17:55;;;;;;;14.52;11.05;;;;;;;3.31;82.68;102044.59;4805945;29;20110;-69
2024/01/30 10:20:59;;;;;;;12.15;9.60;;;;;;;3.34;83.36;102037.72;4805953;29;20049;-70
2024/01/30 10:24:02;;;;;;;12.95;10.65;;;;;;;3.36;83.17;102036.00;4805939;29;20069;-71
2024/01/30 10:27:06;;;;;;;13.43;10.45;;;;;;;3.35;83.27;102041.16;4801473;29;20393;-73
2024/01/30 10:30:10;;;;;;;11.38;9.25;;;;;;;3.45;83.67;102038.59;4805933;29;20049;-72
2024/01/30 10:33:13;;;;;;;11.10;9.77;;;;;;;3.45;83.60;102032.56;4801185;29;20140;-71
2024/01/30 10:36:17;;;;;;;11.52;9.80;;;;;;;3.50;83.53;102034.28;4802281;29;20090;-72
2024/01/30 10:39:22;;;;;;;12.00;9.95;;;;;;;3.48;82.92;102025.69;4805792;29;20107;-73
2024/01/30 10:42:31;;;;;;;14.60;9.50;;;;;;;3.52;82.97;102028.28;4805744;29;20783;-72
2024/01/30 10:45:37;;;;;;;9.93;8.90;;;;;;;3.59;83.05;102022.22;4805770;29;20074;-72
2024/01/30 10:48:44;;;;;;;14.07;10.20;;;;;;;3.64;83.82;102041.22;4794540;29;20563;-72
2024/01/30 10:51:48;;;;;;;14.30;9.18;;;;;;;3.71;83.76;102043.81;4787534;30;20062;-73
2024/01/30 10:54:53;;;;;;;14.73;9.77;;;;;;;3.80;83.79;102036.88;4787658;30;20050;-72
2024/01/30 10:57:56;;;;;;;12.25;9.20;;;;;;;3.90;84.10;102023.97;4787414;30;20186;-70
2024/01/30 11:01:01;;;;;;;10.90;8.35;;;;;;;4.10;83.57;102028.25;4787440;30;20051;-71
2024/01/30 11:04:04;;;;;;;50.90;37.80;;;;;;;4.20;84.47;102022.19;4787337;30;20073;-72
2024/01/30 11:07:17;;;;;;;19.13;15.30;;;;;;;4.30;83.83;102018.72;4787579;30;20179;-73
2024/01/30 11:10:21;;;;;;;13.25;10.18;;;;;;;4.38;84.01;102021.28;4787485;30;20117;-76
2024/01/30 11:13:30;;;;;;;;;;;;;;;4.49;84.17;102023.84;4787771;30;20134;-75
2024/01/30 11:16:33;;;;;;;11.43;9.38;;;;;;;4.42;83.44;102028.19;4787408;30;19940;-76
2024/01/30 11:19:37;;;;;;;15.55;10.27;;;;;;;4.42;83.51;102031.63;4787005;30;20546;-73
2024/01/30 11:22:41;;;;;;;;;;;;;;;4.49;83.26;102029.03;4787057;30;20058;-73
2024/01/30 11:25:45;;;;;;;16.85;10.50;;;;;;;4.58;83.39;102029.84;4786966;30;19982;-75
2024/01/30 11:28:52;;;;;;;15.02;10.00;;;;;;;4.64;83.76;102031.56;4787040;30;20050;-73
2024/01/30 11:31:57;;;;;;;14.65;11.73;;;;;;;4.75;84.10;102019.41;4786832;30;20521;-73
2024/01/30 11:35:05;;;;;;;19.27;12.60;;;;;;;4.87;84.94;102010.75;4787207;30;20061;-73
2024/01/30 11:38:19;;;;;;;14.90;11.73;;;;;;;5.02;85.05;102012.41;4787016;30;20138;-73
2024/01/30 11:41:23;;;;;;;17.00;11.65;;;;;;;5.10;84.84;102018.38;4786864;30;20116;-72
2024/01/30 11:44:26;;;;;;;14.75;10.93;;;;;;;5.14;84.44;102014.94;4786604;29;20132;-72
2024/01/30 11:47:30;;;;;;;16.45;11.63;;;;;;;5.17;84.37;102004.53;4786069;30;20516;-72
2024/01/30 11:50:34;;;;;;;14.60;11.55;;;;;;;5.19;83.88;102007.97;4798559;29;20142;-72
2024/01/30 11:53:37;;;;;;;18.70;12.65;;;;;;;5.27;84.26;101995.81;4804098;29;20045;-72
2024/01/30 11:56:40;;;;;;;16.13;13.00;;;;;;;5.27;84.37;101995.81;4793598;29;20057;-72
2024/01/30 11:59:44;;;;;;;15.50;11.95;;;;;;;5.45;85.20;101992.22;4793401;29;20050;-73
2024/01/30 12:03:00;;;;;;;16.15;13.13;;;;;;;5.69;85.56;101982.53;4804573;29;20054;-73
2024/01/30 12:06:03;;;;;;;14.07;10.93;;;;;;;5.92;84.42;101967.59;4804461;29;20065;-72
2024/01/30 12:09:08;;;;;;;12.40;11.07;;;;;;;6.12;84.33;101957.03;4804419;29;20053;-72
2024/01/30 12:12:11;;;;;;;15.27;12.38;;;;;;;6.26;83.66;101960.34;4804424;29;20381;-72
2024/01/30 12:15:15;;;;;;;15.73;12.15;;;;;;;6.36;82.55;101944.66;4804325;29;20123;-72
2024/01/30 12:18:19;;;;;;;14.80;12.48;;;;;;;6.48;83.32;101936.72;4804602;29;20119;-72
2024/01/30 12:21:23;;;;;;;15.30;10.68;;;;;;;6.64;82.24;101925.22;4801431;29;20478;-72
2024/01/30 12:24:32;;;;;;;16.35;12.52;;;;;;;6.54;80.95;101923.63;4804544;29;20112;-72
2024/01/30 12:27:36;;;;;;;15.43;11.75;;;;;;;6.64;81.03;101930.44;4804354;29;20062;-72
2024/01/30 12:30:39;;;;;;;15.45;11.27;;;;;;;6.61;80.49;101914.88;4804461;29;20054;-73
2024/01/30 12:33:42;;;;;;;20.58;13.60;;;;;;;6.68;80.54;101915.66;4803985;29;20050;-72
2024/01/30 12:36:47;;;;;;;14.20;10.95;;;;;;;6.73;80.92;101911.22;4804134;29;20069;-72
2024/01/30 12:39:53;;;;;;;13.95;11.07;;;;;;;6.93;81.29;101918.75;4804149;29;20054;-72
2024/01/30 12:42:56;;;;;;;18.05;12.55;;;;;;;7.08;80.91;101917.66;4804108;29;20104;-72
2024/01/30 12:46:00;;;;;;;18.77;13.07;;;;;;;7.14;80.19;101915.81;4804259;29;20054;-72
2024/01/30 12:49:04;;;;;;;18.05;11.55;;;;;;;7.19;79.38;101914.00;4803778;29;20046;-73
2024/01/30 12:52:07;;;;;;;;;;;;;;;7.22;79.30;101908.75;4804786;29;20433;-72
2024/01/30 12:55:11;;;;;;;12.90;9.98;;;;;;;7.27;79.24;101905.22;4804095;29;20003;-72
2024/01/30 12:58:14;;;;;;;16.75;10.73;;;;;;;7.20;78.43;101901.84;4807493;29;20601;-72
2024/01/30 13:01:17;;;;;;;11.93;10.52;;;;;;;7.17;79.25;101914.91;4796250;29;20045;-72
2024/01/30 13:04:20;;;;;;;13.60;10.80;;;;;;;7.13;79.59;101910.66;4807390;29;20065;-72
2024/01/30 13:07:23;;;;;;;;;;;;;;;7.10;79.72;101911.53;4807949;29;20054;-72
2024/01/30 13:10:27;;;;;;;13.85;10.82;;;;;;;7.11;80.16;101921.06;4807507;29;20243;-73
2024/01/30 13:13:30;;;;;;;12.75;9.80;;;;;;;7.08;80.44;101915.03;4807433;29;20471;-72
2024/01/30 13:16:34;;;;;;;17.25;11.55;;;;;;;7.08;80.72;101908.09;4807159;29;20508;-72
2024/01/30 13:19:37;;;;;;;13.13;10.13;;;;;;;7.12;81.08;101916.75;4807232;29;20050;-72
2024/01/30 13:22:40;;;;;;;12.07;10.02;;;;;;;7.13;81.72;101906.28;4807120;29;20057;-73
2024/01/30 13:25:44;;;;;;;16.23;9.85;;;;;;;7.14;81.56;101915.81;4807162;29;20084;-72
2024/01/30 13:28:47;;;;;;;18.50;10.30;;;;;;;7.15;82.20;101909.75;4807138;29;20122;-72
2024/01/30 13:31:50;;;;;;;;;;;;;;;7.13;81.92;101903.69;4807344;29;20111;-72
2024/01/30 13:34:53;;;;;;;11.85;8.88;;;;;;;7.17;82.19;101901.91;4807108;29;19966;-72
2024/01/30 13:37:56;;;;;;;13.25;10.32;;;;;;;7.17;82.44;101902.75;4806924;29;20058;-73
2024/01/30 13:41:00;;;;;;;;;;;;;;;7.17;82.50;101910.56;4806598;29;20123;-73
2024/01/30 13:44:03;;;;;;;19.73;9.77;;;;;;;7.10;83.11;101902.88;4806831;29;19928;-73
2024/01/30 13:47:07;;;;;;;13.82;9.52;;;;;;;7.10;82.89;101893.34;4806697;29;20050;-73
2024/01/30 13:50:14;;;;;;;;;;;;;;;7.07;83.24;101890.78;4802111;29;20131;-73
2024/01/30 13:53:18;;;;;;;13.98;9.90;;;;;;;7.08;83.25;101894.25;4805667;29;20065;-73
2024/01/30 13:56:21;;;;;;;13.18;9.20;;;;;;;7.06;83.14;101899.47;4805507;29;20207;-73
2024/01/30 13:59:25;;;;;;;19.27;12.32;;;;;;;7.06;83.22;101896.88;4805404;29;20147;-73
2024/01/30 14:02:28;;;;;;;13.60;10.43;;;;;;;7.07;83.09;101892.53;4805351;29;20114;-72
2024/01/30 14:05:32;;;;;;;16.73;10.68;;;;;;;7.07;83.83;101898.59;4805588;29;20053;-73
2024/01/30 14:08:35;;;;;;;13.70;10.57;;;;;;;7.10;84.10;101902.88;4804495;29;20528;-73
2024/01/30 14:11:38;;;;;;;;;;;;;;;7.08;84.01;101902.03;4805700;29;20073;-73
2024/01/30 14:14:41;;;;;;;12.25;9.18;;;;;;;7.09;84.56;101907.22;4805732;29;19927;-73
2024/01/30 14:17:45;;;;;;;;;;;;;;;7.08;84.54;101918.50;4805494;29;20401;-73
2024/01/30 14:20:48;;;;;;;;;;;;;;;7.06;84.52;101912.47;4794432;29;19975;-72
2024/01/30 14:23:51;;;;;;;14.20;9.90;;;;;;;7.09;84.76;101919.38;4805081;29;19924;-73